EKHO weather

Lindtorp Airport
Holstebro, Central Jutland, Denmark

Public forecast

Using degrees Celsius for public forecast. Weather courtesy of forecast.io.

METAR (pilot weather report)

Closest report is Karup Airport, 23.5 nm (43.5 km) ESE. Retrieved 2019/05/26 16:20 UTC (36 minutes ago):

EKKA 261620Z AUTO 25006KT 9999 -SHRA FEW019/// BKN047/// BKN069/// 11/08 Q1003

TAF (pilot weather forecast)

Closest forecast is Karup Airport, 23.5 nm (43.5 km) ESE. Retrieved 2019/05/26 15:30 UTC (1 hour ago):

TAF EKKA 261412Z 2615/2715 25008KT 9999 SCT020 BKN080 PROB40 2615/2619 7000 -RA BECMG 2619/2622 VRB05KT 4000 -RADZ BKN005 TEMPO 2622/2706 2000 -RADZ BR BKN003 BECMG 2706/2709 24015KT 9999 NSW BKN015 TEMPO 2709/2715 24015G27KT 6000 -SHRA BKN012